Time;durP1;ratioP1;P1;durP2;ratioP2;P2;SDS_P1;SDS_P2;PMS_P1;PMS_P2;Temp;Humidity;BMP_temperature;BMP_pressure;BME280_temperature;BME280_humidity;BME280_pressure;Samples;Min_cycle;Max_cycle;Signal;HPM_P1;HPM_P2
2023/08/09 00:00:10;;;;;;;2.42;1.60;;;14.90;99.90;;;;;;5005541;28;20699;-77
2023/08/09 00:02:35;;;;;;;2.25;1.50;;;14.80;99.90;;;;;;5019050;28;20718;-77
2023/08/09 00:05:01;;;;;;;2.97;1.52;;;14.80;99.90;;;;;;5019100;28;20228;-76
2023/08/09 00:07:27;;;;;;;2.70;1.50;;;14.80;99.90;;;;;;5020882;28;20675;-76
2023/08/09 00:09:52;;;;;;;1.73;1.30;;;14.80;99.90;;;;;;5018851;28;20229;-74
2023/08/09 00:12:18;;;;;;;6.30;1.80;;;14.80;99.90;;;;;;5004639;28;20727;-74
2023/08/09 00:14:43;;;;;;;2.90;1.33;;;14.80;99.90;;;;;;5002578;28;20229;-74
2023/08/09 00:17:09;;;;;;;2.67;1.45;;;14.80;99.90;;;;;;5008431;28;20205;-74
2023/08/09 00:19:35;;;;;;;3.15;1.50;;;14.80;99.90;;;;;;4999439;28;20185;-73
2023/08/09 00:22:00;;;;;;;2.60;1.58;;;14.80;99.90;;;;;;5007074;28;20224;-74
2023/08/09 00:24:26;;;;;;;2.17;1.40;;;14.70;99.90;;;;;;5002176;28;20586;-74
2023/08/09 00:26:51;;;;;;;2.47;1.50;;;14.70;99.90;;;;;;5003884;28;20278;-73
2023/08/09 00:29:17;;;;;;;5.20;1.60;;;14.70;99.90;;;;;;5021110;28;20216;-74
2023/08/09 00:31:43;;;;;;;3.92;1.75;;;14.60;99.90;;;;;;5021846;28;20208;-74
2023/08/09 00:34:08;;;;;;;2.92;1.35;;;14.60;99.90;;;;;;5001654;28;20654;-73
2023/08/09 00:36:34;;;;;;;6.25;1.90;;;14.60;99.90;;;;;;5008252;28;20205;-74
2023/08/09 00:39:00;;;;;;;4.95;1.48;;;14.70;99.90;;;;;;5009527;28;20279;-74
2023/08/09 00:41:26;;;;;;;3.40;1.65;;;14.70;99.90;;;;;;5008961;28;20787;-74
2023/08/09 00:43:51;;;;;;;5.00;1.70;;;14.70;99.90;;;;;;5009005;28;20216;-74
2023/08/09 00:46:17;;;;;;;2.03;1.10;;;14.80;99.90;;;;;;5011270;28;20770;-75
2023/08/09 00:48:43;;;;;;;1.83;1.55;;;14.80;99.90;;;;;;5006056;28;20244;-76
2023/08/09 00:51:10;;;;;;;3.65;1.35;;;14.70;99.90;;;;;;5007253;28;20684;-74
2023/08/09 00:53:36;;;;;;;2.42;1.42;;;14.70;99.90;;;;;;5009351;28;20208;-74
2023/08/09 00:56:02;;;;;;;1.92;1.48;;;14.80;99.90;;;;;;5010806;28;20209;-74
2023/08/09 00:58:28;;;;;;;2.00;1.38;;;14.80;99.90;;;;;;5017098;28;20219;-74
2023/08/09 01:00:53;;;;;;;2.33;1.50;;;14.80;99.90;;;;;;5004553;28;20217;-75
2023/08/09 01:03:19;;;;;;;3.42;1.27;;;14.90;99.90;;;;;;5003476;28;20231;-74
2023/08/09 01:06:23;;;;;;;5.10;1.77;;;14.90;99.90;;;;;;4998861;28;20224;-73
2023/08/09 01:09:03;;;;;;;3.50;1.67;;;14.90;99.90;;;;;;4999489;28;20259;-73
2023/08/09 01:11:44;;;;;;;2.42;1.42;;;14.90;99.90;;;;;;5000058;28;20213;-75
2023/08/09 01:14:12;;;;;;;5.65;1.48;;;14.90;99.90;;;;;;5004387;28;20197;-74
2023/08/09 01:16:37;;;;;;;2.05;1.25;;;14.90;99.90;;;;;;5003407;28;20192;-74
2023/08/09 01:19:09;;;;;;;4.13;1.33;;;14.80;99.90;;;;;;5004141;28;20248;-74
2023/08/09 01:21:38;;;;;;;2.70;1.50;;;14.90;99.90;;;;;;5002893;28;20217;-73
2023/08/09 01:24:06;;;;;;;5.35;2.25;;;14.90;99.90;;;;;;5005097;28;20715;-75
2023/08/09 01:26:32;;;;;;;4.45;1.63;;;14.90;99.90;;;;;;5001032;28;20708;-74
2023/08/09 01:28:58;;;;;;;2.97;1.40;;;14.90;99.90;;;;;;5004710;28;20592;-74
2023/08/09 01:31:23;;;;;;;1.98;1.30;;;14.80;99.90;;;;;;5018167;28;20197;-74
2023/08/09 01:33:49;;;;;;;2.17;1.50;;;14.90;99.90;;;;;;5014827;28;20795;-74
2023/08/09 01:36:21;;;;;;;2.70;1.35;;;14.80;99.90;;;;;;5003163;28;20211;-74
2023/08/09 01:39:00;;;;;;;2.22;1.55;;;14.80;99.90;;;;;;4997050;28;20299;-75
2023/08/09 01:41:27;;;;;;;5.38;1.58;;;14.80;99.90;;;;;;5001682;28;20221;-74
2023/08/09 01:43:55;;;;;;;1.67;1.20;;;14.80;99.90;;;;;;5001159;28;20271;-73
2023/08/09 01:46:21;;;;;;;2.40;1.38;;;14.90;99.90;;;;;;5004753;28;20177;-74
2023/08/09 01:48:47;;;;;;;4.03;1.52;;;14.90;99.90;;;;;;5005850;28;20213;-74
2023/08/09 01:51:13;;;;;;;4.63;1.45;;;14.90;99.90;;;;;;5017518;28;20240;-74
2023/08/09 01:53:39;;;;;;;3.47;1.45;;;14.90;99.90;;;;;;5002660;28;20707;-74
2023/08/09 01:56:05;;;;;;;2.67;1.13;;;14.80;99.90;;;;;;4997636;28;20225;-75
2023/08/09 01:58:31;;;;;;;2.00;1.48;;;14.80;99.90;;;;;;5003612;28;20681;-75
2023/08/09 02:00:57;;;;;;;2.45;1.23;;;14.80;99.90;;;;;;4999113;28;20205;-75
2023/08/09 02:03:25;;;;;;;2.83;1.40;;;14.80;99.90;;;;;;5004486;28;20663;-72
2023/08/09 02:05:51;;;;;;;2.80;1.17;;;14.80;99.90;;;;;;4998708;28;20220;-74
2023/08/09 02:08:17;;;;;;;1.58;1.10;;;14.70;99.90;;;;;;5004163;28;20205;-74
2023/08/09 02:10:42;;;;;;;2.55;1.13;;;14.70;99.90;;;;;;5012207;28;20213;-74
2023/08/09 02:13:08;;;;;;;2.70;1.30;;;14.60;99.90;;;;;;5006221;28;20552;-75
2023/08/09 02:15:34;;;;;;;6.93;1.70;;;14.60;99.90;;;;;;5005736;28;20217;-74
2023/08/09 02:18:00;;;;;;;5.35;1.73;;;14.60;99.90;;;;;;5014343;28;20206;-75
2023/08/09 02:20:27;;;;;;;2.90;1.20;;;14.60;99.90;;;;;;5009087;28;20228;-74
2023/08/09 02:22:52;;;;;;;2.67;1.48;;;14.60;99.90;;;;;;5005664;28;20220;-74
2023/08/09 02:25:18;;;;;;;3.60;1.40;;;14.60;99.90;;;;;;5008028;28;20173;-75
2023/08/09 02:27:44;;;;;;;3.42;1.50;;;14.60;99.90;;;;;;5004723;28;20209;-73
2023/08/09 02:30:09;;;;;;;2.45;1.40;;;14.60;99.90;;;;;;5003653;28;20209;-75
2023/08/09 02:32:36;;;;;;;3.97;1.50;;;14.60;99.90;;;;;;4998765;28;20228;-75
2023/08/09 02:35:02;;;;;;;2.50;1.55;;;14.60;99.90;;;;;;5006922;28;20724;-75
2023/08/09 02:37:28;;;;;;;3.13;1.60;;;14.70;99.90;;;;;;5021756;28;20177;-74
2023/08/09 02:39:54;;;;;;;3.08;1.70;;;14.60;99.90;;;;;;5006330;28;20589;-74
2023/08/09 02:42:20;;;;;;;4.28;1.40;;;14.70;99.90;;;;;;5006161;28;20311;-75
2023/08/09 02:44:46;;;;;;;3.80;1.58;;;14.70;99.90;;;;;;5002258;28;20324;-74
2023/08/09 02:47:11;;;;;;;3.40;1.45;;;14.70;99.90;;;;;;5022087;28;20222;-74
2023/08/09 02:49:37;;;;;;;2.83;1.45;;;14.70;99.90;;;;;;5021972;28;20189;-74
2023/08/09 02:52:03;;;;;;;2.78;1.77;;;14.70;99.90;;;;;;5007627;28;20197;-74
2023/08/09 02:54:29;;;;;;;3.25;1.58;;;14.70;99.90;;;;;;5010350;28;20205;-74
2023/08/09 02:56:55;;;;;;;4.78;1.33;;;14.60;99.90;;;;;;5005657;28;20318;-75
2023/08/09 02:59:21;;;;;;;3.50;1.25;;;14.70;99.90;;;;;;5020272;28;20739;-75
2023/08/09 03:01:46;;;;;;;5.45;1.50;;;14.70;99.90;;;;;;5006324;28;20335;-72
2023/08/09 03:04:12;;;;;;;2.40;1.27;;;14.70;99.90;;;;;;5024534;28;20181;-75
2023/08/09 03:06:37;;;;;;;3.03;1.17;;;14.70;99.90;;;;;;5005608;28;20590;-74
2023/08/09 03:09:03;;;;;;;4.60;1.38;;;14.70;99.90;;;;;;5001971;28;20890;-74
2023/08/09 03:11:29;;;;;;;3.33;1.67;;;14.80;99.90;;;;;;5010167;28;20247;-74
2023/08/09 03:13:55;;;;;;;3.90;1.40;;;14.80;99.90;;;;;;5002665;28;20594;-74
2023/08/09 03:16:21;;;;;;;2.45;1.50;;;14.80;99.90;;;;;;5010501;28;20208;-74
2023/08/09 03:18:47;;;;;;;2.70;1.25;;;14.70;99.90;;;;;;5018836;28;20213;-74
2023/08/09 03:21:13;;;;;;;3.17;1.45;;;14.70;99.90;;;;;;5002664;28;20223;-73
2023/08/09 03:23:39;;;;;;;2.72;1.45;;;14.70;99.90;;;;;;5005718;28;20236;-74
2023/08/09 03:26:05;;;;;;;2.72;1.30;;;14.60;99.90;;;;;;5003522;28;20213;-74
2023/08/09 03:28:32;;;;;;;2.15;1.40;;;14.50;99.90;;;;;;5004560;28;20181;-73
2023/08/09 03:30:57;;;;;;;2.47;1.45;;;14.70;99.90;;;;;;5002984;28;20205;-74
2023/08/09 03:33:25;;;;;;;5.75;1.48;;;14.60;99.90;;;;;;5006274;28;20227;-74
2023/08/09 03:35:50;;;;;;;4.90;1.40;;;14.70;99.90;;;;;;5003058;28;20245;-75
2023/08/09 03:38:16;;;;;;;5.18;1.48;;;14.60;99.90;;;;;;5003891;28;20237;-74
2023/08/09 03:40:42;;;;;;;3.03;1.25;;;14.70;99.90;;;;;;5008693;28;20244;-74
2023/08/09 03:43:08;;;;;;;3.67;1.50;;;14.70;99.90;;;;;;5006077;28;20731;-75
2023/08/09 03:45:33;;;;;;;1.98;1.27;;;14.70;99.90;;;;;;5004128;28;20586;-74
2023/08/09 03:47:59;;;;;;;2.55;1.08;;;14.70;99.90;;;;;;4997575;28;20779;-74
2023/08/09 03:50:25;;;;;;;2.58;1.40;;;14.70;99.90;;;;;;5004713;28;20645;-75
2023/08/09 03:52:51;;;;;;;1.95;1.10;;;14.80;99.90;;;;;;5007007;28;20224;-74
2023/08/09 03:55:17;;;;;;;4.03;1.52;;;14.80;99.90;;;;;;5001486;28;20181;-74
2023/08/09 03:57:43;;;;;;;3.63;1.40;;;14.90;99.90;;;;;;5004197;28;20427;-74
2023/08/09 04:00:13;;;;;;;2.08;1.30;;;15.00;99.90;;;;;;5001724;28;20562;-74
2023/08/09 04:02:39;;;;;;;4.38;1.77;;;15.00;99.90;;;;;;5001823;28;20700;-73
2023/08/09 04:05:05;;;;;;;3.53;1.30;;;15.00;99.90;;;;;;5002780;28;20296;-73
2023/08/09 04:07:31;;;;;;;4.47;1.65;;;15.10;99.90;;;;;;5003043;28;20220;-75
2023/08/09 04:09:56;;;;;;;4.40;1.40;;;15.30;99.90;;;;;;5020656;28;20185;-74
2023/08/09 04:12:22;;;;;;;2.80;1.42;;;16.40;99.90;;;;;;5002078;28;20216;-72
2023/08/09 04:14:48;;;;;;;3.08;1.27;;;16.90;99.90;;;;;;5005470;28;20216;-75
2023/08/09 04:17:13;;;;;;;2.83;1.10;;;17.10;99.90;;;;;;5003960;28;20643;-74
2023/08/09 04:19:39;;;;;;;2.90;1.58;;;17.20;99.90;;;;;;5005255;28;20181;-74
2023/08/09 04:22:04;;;;;;;2.10;1.10;;;16.70;99.90;;;;;;5000961;28;20263;-75
2023/08/09 04:24:30;;;;;;;4.70;1.30;;;16.40;99.90;;;;;;5003184;28;20212;-75
2023/08/09 04:26:55;;;;;;;3.17;1.38;;;16.30;99.90;;;;;;5018483;28;20213;-75
2023/08/09 04:29:21;;;;;;;3.10;1.15;;;16.20;99.90;;;;;;5004538;28;20236;-73
2023/08/09 04:31:48;;;;;;;4.68;1.83;;;16.10;99.90;;;;;;5021948;28;20208;-71
2023/08/09 04:34:13;;;;;;;3.60;1.45;;;16.10;99.90;;;;;;5003272;28;20188;-75
2023/08/09 04:36:39;;;;;;;3.70;1.55;;;16.10;99.90;;;;;;5019104;28;20210;-73
2023/08/09 04:39:09;;;;;;;3.92;1.40;;;16.20;99.90;;;;;;5003865;28;20251;-75
2023/08/09 04:41:35;;;;;;;2.30;1.45;;;16.60;99.90;;;;;;5001325;28;20244;-74
2023/08/09 04:44:01;;;;;;;4.80;1.45;;;18.30;99.90;;;;;;5004797;28;20220;-75
2023/08/09 04:46:27;;;;;;;2.45;1.15;;;20.30;99.90;;;;;;4999801;28;20173;-75
2023/08/09 04:48:52;;;;;;;4.57;1.35;;;21.90;99.90;;;;;;5007173;28;20407;-75
2023/08/09 04:51:18;;;;;;;1.65;1.13;;;23.10;99.90;;;;;;5006834;28;20209;-76
2023/08/09 04:53:44;;;;;;;2.70;1.13;;;23.30;99.90;;;;;;5021393;28;20200;-75
2023/08/09 04:56:10;;;;;;;4.35;1.52;;;23.50;99.90;;;;;;5005841;28;20290;-73
2023/08/09 04:58:37;;;;;;;2.03;1.00;;;24.30;99.90;;;;;;5009346;28;20173;-75
2023/08/09 05:01:03;;;;;;;4.28;1.08;;;24.60;99.90;;;;;;5004428;28;20204;-73
2023/08/09 05:03:29;;;;;;;3.22;1.42;;;24.40;99.90;;;;;;5006649;28;20217;-75
2023/08/09 05:05:54;;;;;;;2.08;0.70;;;23.30;99.90;;;;;;5007685;28;20221;-75
2023/08/09 05:08:20;;;;;;;3.60;1.30;;;22.70;99.90;;;;;;5020868;28;20212;-75
2023/08/09 05:10:46;;;;;;;3.00;1.15;;;22.00;99.90;;;;;;5025542;28;20200;-75
2023/08/09 05:13:11;;;;;;;3.03;1.40;;;21.00;99.90;;;;;;5005189;28;20193;-72
2023/08/09 05:15:37;;;;;;;4.25;1.42;;;20.60;99.90;;;;;;5007258;28;20283;-75
2023/08/09 05:18:03;;;;;;;2.83;1.35;;;20.90;99.90;;;;;;5002466;28;20281;-75
2023/08/09 05:20:29;;;;;;;4.65;1.35;;;20.80;99.90;;;;;;5019850;28;20225;-75
2023/08/09 05:22:54;;;;;;;4.53;1.02;;;21.10;99.90;;;;;;5009369;28;20275;-76
2023/08/09 05:25:20;;;;;;;3.47;1.25;;;22.40;99.90;;;;;;5009530;28;20188;-74
2023/08/09 05:27:47;;;;;;;3.58;1.30;;;21.90;99.90;;;;;;5008271;28;20311;-75
2023/08/09 05:30:14;;;;;;;3.58;1.35;;;22.00;99.90;;;;;;5008751;28;20209;-74
2023/08/09 05:32:40;;;;;;;2.25;1.13;;;21.50;99.90;;;;;;5002212;28;20236;-75
2023/08/09 05:35:06;;;;;;;2.33;1.23;;;21.60;99.90;;;;;;5023302;28;20217;-75
2023/08/09 05:37:31;;;;;;;3.42;1.48;;;23.20;99.90;;;;;;5007415;28;20181;-75
2023/08/09 05:39:57;;;;;;;3.28;1.45;;;24.40;99.90;;;;;;5010404;28;20185;-76
2023/08/09 05:42:23;;;;;;;2.30;0.90;;;25.10;99.90;;;;;;5004761;28;20232;-74
2023/08/09 05:44:49;;;;;;;3.30;1.20;;;25.50;99.90;;;;;;5007677;28;20205;-76
2023/08/09 05:47:14;;;;;;;4.88;1.27;;;25.90;99.90;;;;;;5001204;28;20218;-74
2023/08/09 05:49:40;;;;;;;2.42;1.10;;;26.10;99.90;;;;;;5005825;28;20659;-76
2023/08/09 05:52:06;;;;;;;3.13;1.10;;;26.70;99.90;;;;;;5000586;28;20730;-76
2023/08/09 05:54:32;;;;;;;1.85;0.90;;;27.40;99.90;;;;;;5001537;28;20216;-76
2023/08/09 05:56:58;;;;;;;3.50;1.48;;;27.80;99.90;;;;;;5000871;28;20605;-76
2023/08/09 05:59:24;;;;;;;4.90;1.42;;;27.80;99.90;;;;;;5024278;28;20216;-72
2023/08/09 06:01:49;;;;;;;3.63;1.40;;;27.60;99.90;;;;;;5008791;28;20376;-74
2023/08/09 06:04:15;;;;;;;5.43;1.45;;;28.50;99.90;;;;;;5008182;28;20196;-73
2023/08/09 06:06:42;;;;;;;3.03;1.00;;;28.50;99.90;;;;;;5010875;28;20292;-74
2023/08/09 06:09:09;;;;;;;2.60;1.15;;;28.80;99.90;;;;;;5005989;28;20204;-75
2023/08/09 06:11:35;;;;;;;3.65;1.38;;;29.60;99.90;;;;;;5009405;28;20271;-75
2023/08/09 06:14:01;;;;;;;3.75;1.42;;;29.50;99.80;;;;;;5010324;28;20659;-75
2023/08/09 06:16:27;;;;;;;2.00;1.20;;;29.20;98.90;;;;;;5007380;28;20839;-75
2023/08/09 06:18:53;;;;;;;4.15;1.42;;;28.60;99.90;;;;;;5010242;28;20730;-75
2023/08/09 06:21:18;;;;;;;5.00;1.50;;;27.60;99.90;;;;;;5005403;28;20218;-73
2023/08/09 06:23:44;;;;;;;2.42;1.20;;;26.50;99.90;;;;;;5012915;28;20221;-75
2023/08/09 06:26:09;;;;;;;3.55;1.15;;;25.10;99.90;;;;;;5023184;28;20236;-74
2023/08/09 06:28:35;;;;;;;2.55;1.33;;;23.90;99.90;;;;;;5008882;28;20200;-74
2023/08/09 06:31:01;;;;;;;2.83;1.38;;;22.90;99.90;;;;;;5006358;28;20579;-75
2023/08/09 06:33:26;;;;;;;3.90;1.60;;;22.50;99.90;;;;;;5018217;28;20309;-75
2023/08/09 06:35:52;;;;;;;4.63;1.45;;;23.00;99.90;;;;;;5026438;28;20343;-75
2023/08/09 06:38:19;;;;;;;3.15;1.38;;;24.30;99.90;;;;;;5011272;28;20245;-75
2023/08/09 06:40:44;;;;;;;2.42;1.13;;;25.70;99.90;;;;;;5007984;28;20217;-75
2023/08/09 06:43:10;;;;;;;2.38;1.00;;;27.40;99.90;;;;;;5009744;28;20574;-75
2023/08/09 06:45:38;;;;;;;3.33;1.00;;;27.90;99.90;;;;;;5027628;28;20311;-75
2023/08/09 06:48:04;;;;;;;2.88;1.45;;;27.80;99.90;;;;;;5026324;28;20216;-75
2023/08/09 06:50:30;;;;;;;2.50;1.20;;;28.40;99.90;;;;;;5011887;28;20252;-75
2023/08/09 06:52:55;;;;;;;6.20;1.48;;;29.60;99.90;;;;;;5012169;28;20244;-75
2023/08/09 06:55:21;;;;;;;4.03;1.25;;;29.60;99.90;;;;;;5011743;28;20252;-74
2023/08/09 06:57:47;;;;;;;2.17;1.15;;;29.20;99.40;;;;;;5012463;28;20421;-74
2023/08/09 07:00:15;;;;;;;2.65;1.30;;;28.40;99.60;;;;;;5010522;28;20213;-74
2023/08/09 07:02:42;;;;;;;5.50;1.58;;;27.90;99.90;;;;;;5011660;28;20221;-76
2023/08/09 07:05:14;;;;;;;2.47;1.40;;;27.90;99.90;;;;;;5012254;28;20271;-74
2023/08/09 07:07:42;;;;;;;2.58;1.45;;;29.20;98.90;;;;;;5011618;28;20188;-76
2023/08/09 07:10:08;;;;;;;3.53;1.38;;;28.60;98.60;;;;;;5012661;28;20559;-74
2023/08/09 07:12:34;;;;;;;5.15;1.92;;;28.30;99.40;;;;;;5011525;28;20204;-75
2023/08/09 07:15:00;;;;;;;5.30;1.40;;;28.20;99.60;;;;;;5012026;28;20208;-75
2023/08/09 07:17:26;;;;;;;6.70;2.72;;;29.40;98.20;;;;;;5011463;28;20267;-74
2023/08/09 07:19:52;;;;;;;6.32;1.80;;;30.10;96.90;;;;;;5024542;28;20221;-73
2023/08/09 07:22:17;;;;;;;2.30;1.58;;;30.10;96.00;;;;;;5009274;28;20230;-76
2023/08/09 07:24:43;;;;;;;2.95;1.20;;;29.70;96.10;;;;;;5027382;28;20229;-76
2023/08/09 07:27:09;;;;;;;4.63;1.73;;;29.60;96.30;;;;;;5027039;28;20231;-75
2023/08/09 07:29:34;;;;;;;2.22;1.25;;;28.90;96.40;;;;;;5012074;28;20251;-76
2023/08/09 07:32:00;;;;;;;3.60;1.48;;;27.60;97.60;;;;;;5011401;28;20726;-76
2023/08/09 07:34:26;;;;;;;2.92;1.25;;;26.20;99.40;;;;;;5006327;28;20276;-74
2023/08/09 07:36:52;;;;;;;6.75;1.83;;;26.00;99.90;;;;;;5002134;28;20296;-75
2023/08/09 07:39:17;;;;;;;5.10;1.52;;;25.30;99.90;;;;;;4996822;28;20257;-74
2023/08/09 07:41:43;;;;;;;4.63;1.50;;;25.90;99.90;;;;;;5008625;28;20217;-75
2023/08/09 07:44:09;;;;;;;4.47;1.70;;;26.20;99.90;;;;;;5006918;28;20739;-76
2023/08/09 07:46:34;;;;;;;5.28;1.70;;;26.60;99.90;;;;;;5009704;28;20666;-73
2023/08/09 07:49:00;;;;;;;3.83;1.80;;;27.60;99.80;;;;;;5010608;28;20177;-76
2023/08/09 07:51:26;;;;;;;5.45;1.42;;;27.40;99.70;;;;;;5007801;28;20765;-73
2023/08/09 07:53:52;;;;;;;4.53;1.55;;;27.70;98.90;;;;;;5007936;28;20212;-75
2023/08/09 07:56:17;;;;;;;2.28;1.35;;;27.70;99.70;;;;;;5008489;28;20217;-75
2023/08/09 07:58:43;;;;;;;3.25;1.40;;;27.80;99.20;;;;;;5023172;28;20185;-74
2023/08/09 08:01:09;;;;;;;4.10;1.50;;;28.00;98.90;;;;;;5009533;28;20205;-75
2023/08/09 08:03:34;;;;;;;4.00;1.52;;;27.60;99.20;;;;;;5007506;28;20217;-75
2023/08/09 08:06:00;;;;;;;5.28;1.63;;;27.70;98.70;;;;;;5020508;28;20209;-76
2023/08/09 08:08:26;;;;;;;2.65;1.38;;;27.20;98.80;;;;;;5009282;28;20213;-74
2023/08/09 08:10:51;;;;;;;8.38;1.70;;;26.60;99.90;;;;;;5006368;28;20216;-75
2023/08/09 08:13:17;;;;;;;4.07;1.48;;;26.00;99.90;;;;;;5008611;28;20185;-75
2023/08/09 08:15:42;;;;;;;5.75;1.77;;;26.00;99.90;;;;;;5008590;28;20572;-74
2023/08/09 08:18:08;;;;;;;4.15;1.65;;;25.20;99.90;;;;;;5005283;28;20290;-75
2023/08/09 08:20:34;;;;;;;3.70;1.45;;;24.90;99.90;;;;;;5002972;28;20731;-74
2023/08/09 08:23:00;;;;;;;4.53;1.33;;;25.10;99.90;;;;;;5020212;28;20238;-75
2023/08/09 08:25:25;;;;;;;5.93;2.47;;;26.00;99.90;;;;;;5005873;28;20259;-75
2023/08/09 08:27:51;;;;;;;2.88;1.58;;;26.70;99.90;;;;;;5007860;28;20259;-73
2023/08/09 08:30:18;;;;;;;4.53;2.00;;;27.70;99.60;;;;;;5005830;28;20213;-75
2023/08/09 08:32:46;;;;;;;6.00;1.70;;;28.40;98.40;;;;;;5007652;28;20224;-75
2023/08/09 08:35:13;;;;;;;3.22;1.88;;;28.90;97.30;;;;;;5001026;28;20726;-75
2023/08/09 08:37:40;;;;;;;4.43;1.90;;;28.60;96.60;;;;;;5020756;28;20607;-74
2023/08/09 08:40:09;;;;;;;4.68;1.13;;;28.60;96.90;;;;;;5005109;28;20235;-74
2023/08/09 08:42:36;;;;;;;4.47;2.13;;;28.20;96.80;;;;;;5002748;28;20283;-75
2023/08/09 08:45:09;;;;;;;3.13;1.48;;;27.30;98.10;;;;;;5001313;28;20630;-75
2023/08/09 08:47:40;;;;;;;6.75;1.50;;;27.70;97.20;;;;;;5007294;28;20276;-76
2023/08/09 08:50:08;;;;;;;3.30;1.40;;;27.30;97.00;;;;;;5005856;28;20225;-74
2023/08/09 08:52:37;;;;;;;4.18;1.50;;;26.80;97.70;;;;;;5007215;28;20563;-74
2023/08/09 08:55:05;;;;;;;4.30;2.03;;;26.60;98.50;;;;;;5009666;28;20177;-75
2023/08/09 08:57:31;;;;;;;6.25;1.55;;;26.70;99.60;;;;;;5004398;28;20209;-74
2023/08/09 08:59:58;;;;;;;2.92;1.20;;;26.40;98.70;;;;;;5008148;28;20237;-75
2023/08/09 09:02:23;;;;;;;6.10;1.40;;;25.90;99.60;;;;;;5004283;28;20247;-74
2023/08/09 09:04:49;;;;;;;6.18;2.40;;;26.10;99.90;;;;;;5008093;28;21553;-74
2023/08/09 09:07:15;;;;;;;7.60;4.50;;;26.40;99.60;;;;;;5006888;28;20239;-74
2023/08/09 09:10:05;;;;;;;2.70;1.20;;;27.00;99.00;;;;;;5004978;28;20216;-75
2023/08/09 09:12:34;;;;;;;7.88;1.60;;;27.00;98.00;;;;;;4995859;28;20222;-73
2023/08/09 09:15:01;;;;;;;3.08;1.08;;;26.40;98.60;;;;;;5002458;28;20272;-74
2023/08/09 09:17:27;;;;;;;4.05;1.63;;;26.10;99.10;;;;;;5002457;28;20263;-74
2023/08/09 09:19:53;;;;;;;3.78;1.23;;;26.20;99.20;;;;;;5007091;28;20210;-74
2023/08/09 09:22:29;;;;;;;4.97;1.48;;;26.60;99.10;;;;;;5007418;28;20730;-75
2023/08/09 09:24:58;;;;;;;4.25;1.15;;;26.20;99.20;;;;;;5005739;28;20228;-75
2023/08/09 09:27:31;;;;;;;2.38;1.27;;;26.60;99.90;;;;;;5006398;28;20209;-73
2023/08/09 09:30:04;;;;;;;3.80;1.35;;;26.90;99.00;;;;;;5006473;28;20196;-75
2023/08/09 09:32:33;;;;;;;5.65;1.70;;;26.30;97.70;;;;;;5004435;28;20213;-75
2023/08/09 09:34:59;;;;;;;5.78;1.60;;;25.80;98.90;;;;;;5006806;28;20579;-75
2023/08/09 09:37:29;;;;;;;6.03;1.55;;;25.30;99.90;;;;;;5006447;28;20184;-74
2023/08/09 09:39:55;;;;;;;1.33;1.00;;;25.10;99.90;;;;;;5009673;28;20213;-75
2023/08/09 09:42:32;;;;;;;5.38;1.20;;;25.10;99.90;;;;;;5008445;28;20343;-74
2023/08/09 09:45:08;;;;;;;2.25;1.02;;;25.10;99.50;;;;;;5006811;28;20292;-74
2023/08/09 09:47:39;;;;;;;2.30;1.27;;;25.30;99.90;;;;;;5010235;28;20209;-75
2023/08/09 09:50:08;;;;;;;3.30;1.35;;;25.70;99.50;;;;;;5014323;28;20753;-74
2023/08/09 09:52:39;;;;;;;3.50;1.25;;;25.20;99.30;;;;;;5010596;28;20662;-76
2023/08/09 09:55:06;;;;;;;5.65;1.13;;;24.90;99.10;;;;;;5011916;28;20204;-75
2023/08/09 09:57:33;;;;;;;2.47;1.20;;;24.20;99.60;;;;;;5025085;28;20217;-75
2023/08/09 09:59:59;;;;;;;5.60;1.38;;;23.60;99.90;;;;;;5011669;28;20220;-75
2023/08/09 10:02:47;;;;;;;1.88;1.10;;;23.80;99.90;;;;;;5009539;28;20282;-74
2023/08/09 10:05:26;;;;;;;2.38;1.48;;;24.20;99.90;;;;;;5023252;28;20215;-74
2023/08/09 10:07:52;;;;;;;5.20;1.80;;;24.30;99.90;;;;;;5010432;28;20208;-75
2023/08/09 10:10:19;;;;;;;4.10;1.40;;;24.60;99.90;;;;;;5007380;28;20211;-76
2023/08/09 10:12:51;;;;;;;2.33;1.27;;;24.70;99.90;;;;;;5008244;28;20233;-74
2023/08/09 10:15:20;;;;;;;3.53;1.45;;;24.60;99.90;;;;;;5011441;28;20223;-74
2023/08/09 10:17:49;;;;;;;4.45;1.17;;;24.50;99.90;;;;;;5012835;28;20211;-74
2023/08/09 10:20:17;;;;;;;3.58;1.00;;;24.90;99.90;;;;;;5012798;28;20208;-75
2023/08/09 10:22:46;;;;;;;2.92;0.82;;;25.10;99.90;;;;;;5011485;28;20204;-75
2023/08/09 10:25:12;;;;;;;3.90;1.92;;;25.10;99.50;;;;;;5015066;28;20208;-75
2023/08/09 10:28:00;;;;;;;7.05;0.90;;;25.10;99.70;;;;;;5014192;28;20217;-76
2023/08/09 10:30:28;;;;;;;10.07;1.80;;;25.30;98.80;;;;;;5011651;28;20610;-74
2023/08/09 10:32:57;;;;;;;8.05;4.10;;;25.20;98.50;;;;;;5017320;28;20209;-75
2023/08/09 10:35:45;;;;;;;3.83;1.20;;;25.10;98.70;;;;;;5013225;28;20588;-75
2023/08/09 10:38:31;;;;;;;4.13;1.25;;;24.70;99.20;;;;;;5014228;28;20232;-75
2023/08/09 10:40:57;;;;;;;3.33;1.13;;;24.40;99.80;;;;;;5011249;28;20209;-75
2023/08/09 10:43:24;;;;;;;9.75;1.58;;;24.00;99.90;;;;;;5012026;28;20216;-73
2023/08/09 10:45:53;;;;;;;4.05;1.60;;;23.70;99.90;;;;;;5019084;28;20209;-74
2023/08/09 10:48:26;;;;;;;4.20;1.30;;;23.50;99.90;;;;;;5004955;28;20699;-74
2023/08/09 10:51:28;;;;;;;6.47;1.63;;;23.20;99.90;;;;;;5006910;28;20213;-77
2023/08/09 10:54:03;;;;;;;3.22;1.15;;;22.80;99.90;;;;;;5010870;28;20209;-75
2023/08/09 10:56:44;;;;;;;5.18;1.65;;;22.20;99.90;;;;;;5011666;28;20312;-75
2023/08/09 10:59:14;;;;;;;10.23;1.45;;;21.90;99.90;;;;;;5007070;28;20209;-75
2023/08/09 11:01:43;;;;;;;4.85;1.10;;;21.80;99.90;;;;;;5010416;28;20292;-76
2023/08/09 11:04:12;;;;;;;5.68;1.55;;;21.80;99.90;;;;;;5010284;28;20727;-75
2023/08/09 11:06:39;;;;;;;3.10;1.50;;;21.90;99.90;;;;;;5008194;28;20213;-75
2023/08/09 11:09:19;;;;;;;6.35;2.10;;;21.90;99.90;;;;;;5010235;28;20224;-75
2023/08/09 11:11:46;;;;;;;4.57;2.38;;;22.00;99.90;;;;;;5007320;28;20221;-74
2023/08/09 11:14:15;;;;;;;4.32;2.20;;;22.20;99.90;;;;;;5009321;28;20348;-75
2023/08/09 11:16:41;;;;;;;5.93;3.22;;;22.30;99.90;;;;;;5005743;28;20739;-75
2023/08/09 11:19:12;;;;;;;3.72;1.23;;;22.50;99.90;;;;;;5005652;28;20267;-76
2023/08/09 11:21:41;;;;;;;3.22;0.90;;;22.60;99.90;;;;;;5001158;28;20216;-75
2023/08/09 11:24:08;;;;;;;3.58;1.58;;;22.40;99.90;;;;;;5004612;28;20606;-76
2023/08/09 11:26:36;;;;;;;2.35;1.10;;;22.70;99.90;;;;;;5002483;28;20237;-75
2023/08/09 11:29:06;;;;;;;3.42;1.40;;;23.00;99.90;;;;;;5009951;28;20216;-74
2023/08/09 11:31:33;;;;;;;5.20;2.60;;;23.20;99.90;;;;;;5011673;28;20208;-75
2023/08/09 11:34:00;;;;;;;6.00;2.67;;;23.30;99.90;;;;;;5010711;28;20181;-75
2023/08/09 11:36:32;;;;;;;3.15;1.15;;;23.50;99.90;;;;;;5027690;28;20213;-75
2023/08/09 11:38:59;;;;;;;2.63;1.27;;;23.50;99.90;;;;;;5003080;28;20221;-76
2023/08/09 11:41:26;;;;;;;9.40;1.73;;;23.50;99.90;;;;;;5008055;28;20267;-75
2023/08/09 11:43:52;;;;;;;2.33;1.38;;;23.50;99.90;;;;;;5006540;28;20204;-74
2023/08/09 11:46:22;;;;;;;9.05;1.88;;;23.70;99.90;;;;;;5008731;28;20315;-75
2023/08/09 11:48:49;;;;;;;3.42;1.40;;;23.50;99.90;;;;;;5007343;28;20739;-76
2023/08/09 11:51:21;;;;;;;3.33;1.40;;;23.70;99.90;;;;;;5006924;28;20979;-76
2023/08/09 11:53:49;;;;;;;5.07;1.30;;;23.70;99.90;;;;;;5021179;28;20294;-76
2023/08/09 11:56:18;;;;;;;2.50;1.77;;;23.80;99.90;;;;;;5005127;28;20210;-76
2023/08/09 11:58:47;;;;;;;3.35;1.50;;;24.00;99.90;;;;;;5011344;28;20268;-76
2023/08/09 12:01:24;;;;;;;8.30;3.30;;;23.70;99.90;;;;;;5010365;28;20765;-76
2023/08/09 12:03:55;;;;;;;5.55;2.33;;;23.60;99.90;;;;;;5000337;28;20775;-76
2023/08/09 12:06:38;;;;;;;5.47;1.60;;;23.80;99.90;;;;;;5009062;28;20296;-76
2023/08/09 12:09:34;;;;;;;2.03;0.90;;;23.90;99.90;;;;;;5008866;28;20244;-76
2023/08/09 12:12:16;;;;;;;3.00;1.35;;;23.50;99.90;;;;;;5007724;28;20626;-76
2023/08/09 12:14:50;;;;;;;3.83;1.20;;;22.80;99.90;;;;;;5010610;28;20703;-75
2023/08/09 12:17:27;;;;;;;3.78;1.08;;;22.50;99.90;;;;;;5007367;28;20228;-75
2023/08/09 12:19:56;;;;;;;2.03;1.10;;;22.50;99.90;;;;;;5009817;28;20204;-74
2023/08/09 12:22:22;;;;;;;3.63;0.98;;;22.70;99.90;;;;;;5007172;28;20199;-75
2023/08/09 12:24:48;;;;;;;4.80;1.20;;;22.80;99.90;;;;;;5005167;28;20741;-76
2023/08/09 12:27:15;;;;;;;4.13;1.08;;;23.00;99.90;;;;;;5005878;28;20263;-76
2023/08/09 12:29:40;;;;;;;3.90;1.13;;;23.00;99.90;;;;;;5005132;28;20201;-76
2023/08/09 12:32:06;;;;;;;2.65;1.00;;;23.00;99.90;;;;;;5003490;28;20212;-76
2023/08/09 12:34:33;;;;;;;1.77;1.00;;;23.10;99.90;;;;;;5004602;28;20191;-75
2023/08/09 12:36:59;;;;;;;4.82;1.17;;;23.00;99.90;;;;;;5001806;28;20174;-76
2023/08/09 12:39:26;;;;;;;2.58;0.95;;;23.00;99.90;;;;;;5007742;28;20212;-75
2023/08/09 12:41:52;;;;;;;4.85;1.20;;;22.90;99.90;;;;;;5007164;28;20212;-74
2023/08/09 12:44:18;;;;;;;4.45;1.33;;;22.90;99.90;;;;;;5021701;28;20204;-75
2023/08/09 12:46:44;;;;;;;7.13;2.50;;;22.70;99.90;;;;;;5010094;28;20222;-75
2023/08/09 12:49:10;;;;;;;7.00;1.80;;;22.90;99.90;;;;;;5010320;28;20205;-76